createdAt,value
2022-12-23T00:00:42.876Z,78.30
2022-12-23T00:03:09.991Z,78.20
2022-12-23T00:05:38.687Z,78.10
2022-12-23T00:08:06.755Z,78.00
2022-12-23T00:10:35.319Z,77.90
2022-12-23T00:13:20.628Z,77.90
2022-12-23T00:15:47.501Z,77.80
2022-12-23T00:18:14.603Z,77.90
2022-12-23T00:20:41.543Z,77.90
2022-12-23T00:23:08.519Z,78.00
2022-12-23T00:25:41.007Z,78.10
2022-12-23T00:28:17.453Z,78.20
2022-12-23T00:30:55.425Z,78.30
2022-12-23T00:33:24.979Z,78.50
2022-12-23T00:35:52.555Z,78.60
2022-12-23T00:38:39.420Z,78.70
2022-12-23T00:41:29.269Z,78.60
2022-12-23T00:43:56.275Z,78.50
2022-12-23T00:46:23.207Z,78.50
2022-12-23T00:49:08.847Z,78.30
2022-12-23T00:51:36.020Z,78.30
2022-12-23T00:54:03.526Z,78.10
2022-12-23T00:56:31.120Z,77.90
2022-12-23T00:58:58.633Z,77.80
2022-12-23T01:01:44.621Z,77.80
2022-12-23T01:04:32.128Z,77.80
2022-12-23T01:06:59.125Z,77.80
2022-12-23T01:09:26.336Z,77.70
2022-12-23T01:11:53.886Z,77.60
2022-12-23T01:14:21.042Z,77.50
2022-12-23T01:16:48.869Z,77.50
2022-12-23T01:19:16.070Z,77.40
2022-12-23T01:21:42.954Z,77.40
2022-12-23T01:24:09.894Z,77.30
2022-12-23T01:26:36.821Z,77.20
2022-12-23T01:29:04.070Z,77.20
2022-12-23T01:31:30.979Z,77.10
2022-12-23T01:33:57.904Z,77.10
2022-12-23T01:36:25.149Z,77.20
2022-12-23T01:38:52.499Z,77.20
2022-12-23T01:41:43.550Z,77.20
2022-12-23T01:45:04.862Z,77.20
2022-12-23T01:47:52.979Z,77.10
2022-12-23T01:50:29.065Z,77.00
2022-12-23T01:53:24.079Z,77.10
2022-12-23T01:55:52.034Z,77.10
2022-12-23T01:58:25.594Z,77.20
2022-12-23T02:01:12.769Z,77.20
2022-12-23T02:03:42.967Z,77.30
2022-12-23T02:06:54.857Z,77.20
2022-12-23T02:09:51.118Z,77.30
2022-12-23T02:12:55.202Z,78.10
2022-12-23T02:16:04.327Z,77.20
2022-12-23T02:18:49.579Z,77.20
2022-12-23T02:21:30.005Z,77.20
2022-12-23T02:25:00.004Z,77.30
2022-12-23T02:27:48.332Z,77.40
2022-12-23T02:30:27.000Z,77.50
2022-12-23T02:33:00.068Z,77.50
2022-12-23T02:36:08.224Z,77.50
2022-12-23T02:38:53.151Z,77.50
2022-12-23T02:41:41.386Z,77.40
2022-12-23T02:44:33.535Z,77.40
2022-12-23T02:47:13.037Z,77.40
2022-12-23T02:49:43.941Z,77.50
2022-12-23T02:52:14.201Z,77.50
2022-12-23T02:54:56.315Z,77.40
2022-12-23T02:57:32.270Z,77.60
2022-12-23T03:00:01.538Z,77.50
2022-12-23T03:02:28.470Z,77.60
2022-12-23T03:04:55.443Z,77.60
2022-12-23T03:07:38.061Z,77.60
2022-12-23T03:10:11.069Z,77.70
2022-12-23T03:12:54.834Z,77.70
2022-12-23T03:15:33.788Z,77.70
2022-12-23T03:18:22.138Z,77.70
2022-12-23T03:20:54.784Z,77.60
2022-12-23T03:23:32.433Z,77.70
2022-12-23T03:26:20.700Z,77.50
2022-12-23T03:29:15.848Z,77.40
2022-12-23T03:31:44.432Z,77.40
2022-12-23T03:34:15.245Z,77.30
2022-12-23T03:36:58.869Z,78.10
2022-12-23T03:39:34.560Z,77.10
2022-12-23T03:42:08.863Z,77.20
2022-12-23T03:45:03.569Z,77.00
2022-12-23T03:47:35.748Z,77.00
2022-12-23T03:50:11.168Z,76.90
2022-12-23T03:52:58.218Z,76.80
2022-12-23T03:55:32.995Z,76.70
2022-12-23T03:58:14.247Z,76.70
2022-12-23T04:00:59.839Z,76.60
2022-12-23T04:03:40.019Z,76.70
2022-12-23T04:06:12.073Z,76.60
2022-12-23T04:08:39.929Z,76.60
2022-12-23T04:11:06.939Z,76.60
2022-12-23T04:13:33.878Z,76.60
2022-12-23T04:16:02.760Z,76.50
2022-12-23T04:18:29.956Z,76.50
2022-12-23T04:20:56.955Z,76.40
2022-12-23T04:23:24.034Z,76.30
2022-12-23T04:25:51.004Z,76.30
2022-12-23T04:28:20.789Z,76.30
2022-12-23T04:30:47.829Z,76.30
2022-12-23T04:33:17.486Z,76.30
2022-12-23T04:35:44.394Z,76.30
2022-12-23T04:38:11.457Z,76.20
2022-12-23T04:40:38.283Z,76.10
2022-12-23T04:43:05.154Z,76.10
2022-12-23T04:45:32.741Z,76.20
2022-12-23T04:47:59.719Z,76.30
2022-12-23T04:50:26.615Z,76.20
2022-12-23T04:52:53.479Z,76.10
2022-12-23T04:55:20.365Z,75.90
2022-12-23T04:57:47.453Z,75.70
2022-12-23T05:00:15.851Z,75.60
2022-12-23T05:02:42.827Z,75.50
2022-12-23T05:05:09.903Z,75.40
2022-12-23T05:07:36.798Z,75.30
2022-12-23T05:10:03.912Z,75.30
2022-12-23T05:12:31.508Z,75.20
2022-12-23T05:14:58.428Z,75.10
2022-12-23T05:17:25.490Z,75.20
2022-12-23T05:19:56.141Z,75.20
2022-12-23T05:22:23.059Z,75.20
2022-12-23T05:24:49.950Z,75.40
2022-12-23T05:27:16.822Z,75.20
2022-12-23T05:29:43.723Z,75.20
2022-12-23T05:32:10.699Z,75.20
2022-12-23T05:34:37.713Z,75.20
2022-12-23T05:37:04.592Z,75.30
2022-12-23T05:39:31.535Z,75.40
2022-12-23T05:41:58.407Z,75.40
2022-12-23T05:44:28.251Z,75.40
2022-12-23T05:46:55.124Z,75.60
2022-12-23T05:49:22.717Z,75.40
2022-12-23T05:51:49.585Z,75.40
2022-12-23T05:54:16.497Z,75.20
2022-12-23T05:56:43.367Z,75.10
2022-12-23T05:59:10.287Z,76.00
2022-12-23T06:01:37.389Z,75.10
2022-12-23T06:04:04.638Z,74.90
2022-12-23T06:06:31.583Z,75.00
2022-12-23T06:08:59.995Z,75.00
2022-12-23T06:11:27.722Z,75.00
2022-12-23T06:13:54.746Z,74.90
2022-12-23T06:16:21.733Z,74.80
2022-12-23T06:18:48.694Z,74.70
2022-12-23T06:21:15.537Z,74.70
2022-12-23T06:23:42.410Z,74.70
2022-12-23T06:26:09.258Z,74.70
2022-12-23T06:28:36.163Z,74.60
2022-12-23T06:31:03.067Z,74.60
2022-12-23T06:33:29.932Z,74.50
2022-12-23T06:35:57.055Z,74.40
2022-12-23T06:38:24.154Z,74.40
2022-12-23T06:40:51.156Z,74.30
2022-12-23T06:43:18.054Z,74.30
2022-12-23T06:45:49.053Z,74.30
2022-12-23T06:48:17.076Z,74.30
2022-12-23T06:50:44.773Z,74.30
2022-12-23T06:53:11.766Z,74.40
2022-12-23T06:55:38.840Z,74.30
2022-12-23T06:58:06.297Z,74.30
2022-12-23T07:00:33.379Z,74.30
2022-12-23T07:03:00.530Z,74.40
2022-12-23T07:05:33.258Z,74.40
2022-12-23T07:08:03.567Z,74.30
2022-12-23T07:10:30.609Z,74.30
2022-12-23T07:12:57.597Z,74.50
2022-12-23T07:15:24.520Z,74.50
2022-12-23T07:17:51.472Z,74.60
2022-12-23T07:20:18.441Z,74.60
2022-12-23T07:22:45.785Z,74.70
2022-12-23T07:25:12.725Z,74.60
2022-12-23T07:27:39.566Z,74.50
2022-12-23T07:30:07.121Z,74.40
2022-12-23T07:32:34.129Z,74.30
2022-12-23T07:35:01.041Z,74.10
2022-12-23T07:37:27.938Z,74.20
2022-12-23T07:39:54.843Z,74.40
2022-12-23T07:45:09.056Z,74.70
2022-12-23T07:47:35.938Z,74.80
2022-12-23T07:50:02.845Z,74.80
2022-12-23T07:52:30.074Z,74.90
2022-12-23T07:54:56.989Z,75.00
2022-12-23T07:57:24.412Z,75.10
2022-12-23T07:59:51.404Z,75.00
2022-12-23T08:02:18.520Z,74.90
2022-12-23T08:04:46.507Z,75.20
2022-12-23T08:07:13.636Z,75.50
2022-12-23T08:09:40.509Z,75.50
2022-12-23T08:12:07.538Z,75.60
2022-12-23T08:14:34.509Z,75.80
2022-12-23T08:17:02.973Z,76.20
2022-12-23T08:19:30.138Z,76.20
2022-12-23T08:21:57.201Z,76.20
2022-12-23T08:24:24.539Z,76.00
2022-12-23T08:26:51.427Z,75.80
2022-12-23T08:29:18.342Z,75.50
2022-12-23T08:31:45.195Z,75.40
2022-12-23T08:34:12.135Z,75.30
2022-12-23T08:36:40.073Z,75.40
2022-12-23T08:39:09.555Z,75.50
2022-12-23T08:41:42.727Z,75.80
2022-12-23T08:44:12.775Z,76.00
2022-12-23T08:46:40.174Z,76.10
2022-12-23T08:49:07.906Z,76.20
2022-12-23T08:51:36.205Z,76.40
2022-12-23T08:54:03.729Z,76.40
2022-12-23T08:56:33.857Z,76.50
2022-12-23T08:59:01.171Z,76.70
2022-12-23T09:01:31.434Z,76.90
2022-12-23T09:03:58.759Z,77.10
2022-12-23T09:06:30.111Z,77.20
2022-12-23T09:08:58.376Z,77.40
2022-12-23T09:11:27.334Z,77.50
2022-12-23T09:13:54.946Z,77.70
2022-12-23T09:16:22.160Z,77.70
2022-12-23T09:18:49.039Z,77.80
2022-12-23T09:21:19.486Z,78.00
2022-12-23T09:23:46.501Z,78.00
2022-12-23T09:26:25.675Z,78.00
2022-12-23T09:28:52.977Z,78.10
2022-12-23T09:31:21.119Z,78.30
2022-12-23T09:33:49.812Z,78.30
2022-12-23T09:36:17.201Z,78.40
2022-12-23T09:38:44.323Z,78.50
2022-12-23T09:41:20.035Z,78.50
2022-12-23T09:43:58.708Z,78.60
2022-12-23T09:46:29.955Z,78.50
2022-12-23T09:49:05.299Z,78.60
2022-12-23T09:51:33.517Z,78.60
2022-12-23T09:54:16.906Z,78.60
2022-12-23T09:57:17.263Z,78.60
2022-12-23T09:59:59.199Z,78.70
2022-12-23T10:02:45.322Z,78.80
2022-12-23T10:05:50.112Z,78.80
2022-12-23T10:08:36.360Z,78.80
2022-12-23T10:11:13.866Z,78.90
2022-12-23T10:13:53.828Z,79.20
2022-12-23T10:16:24.225Z,79.30
2022-12-23T10:19:04.445Z,79.40
2022-12-23T10:21:47.464Z,79.40
2022-12-23T10:24:25.015Z,79.30
2022-12-23T10:26:53.675Z,79.30
2022-12-23T10:29:23.652Z,79.20
2022-12-23T10:32:22.005Z,79.30
2022-12-23T10:35:01.118Z,79.30
2022-12-23T10:37:37.095Z,79.40
2022-12-23T10:40:14.886Z,79.40
2022-12-23T10:43:03.303Z,79.40
2022-12-23T10:45:48.702Z,79.40
2022-12-23T10:48:36.053Z,79.40
2022-12-23T10:51:25.596Z,79.40
2022-12-23T10:53:58.905Z,79.20
2022-12-23T10:56:26.328Z,79.00
2022-12-23T10:58:57.013Z,78.90
2022-12-23T11:01:27.467Z,78.90
2022-12-23T11:04:13.318Z,78.90
2022-12-23T11:06:46.174Z,78.80
2022-12-23T11:09:30.447Z,78.80
2022-12-23T11:12:03.501Z,78.80
2022-12-23T11:14:34.438Z,78.90
2022-12-23T11:17:01.881Z,78.90
2022-12-23T11:19:29.127Z,78.90
2022-12-23T11:21:58.278Z,78.90
2022-12-23T11:24:27.123Z,78.60
2022-12-23T11:27:03.184Z,78.40
2022-12-23T11:29:38.752Z,78.30
2022-12-23T11:32:21.832Z,78.30
2022-12-23T11:34:50.100Z,78.40
2022-12-23T11:37:36.737Z,78.60
2022-12-23T11:40:22.864Z,78.80
2022-12-23T11:42:57.115Z,78.90
2022-12-23T11:45:27.465Z,79.00
2022-12-23T11:47:54.705Z,78.90
2022-12-23T11:50:24.696Z,79.20
2022-12-23T11:52:54.275Z,79.50
2022-12-23T11:55:29.769Z,79.40
2022-12-23T11:57:56.984Z,79.60
2022-12-23T12:00:28.982Z,79.60
2022-12-23T12:02:59.900Z,79.60
2022-12-23T12:05:29.569Z,79.70
2022-12-23T12:08:01.227Z,79.60
2022-12-23T12:10:35.017Z,79.70
2022-12-23T12:13:41.051Z,79.60
2022-12-23T12:16:51.718Z,79.60
2022-12-23T12:19:54.809Z,79.50
2022-12-23T12:22:34.938Z,79.50
2022-12-23T12:25:15.419Z,79.50
2022-12-23T12:27:47.474Z,79.20
2022-12-23T12:30:19.729Z,79.00
2022-12-23T12:32:55.497Z,78.80
2022-12-23T12:35:42.981Z,78.80
2022-12-23T12:38:34.543Z,78.70
2022-12-23T12:41:30.109Z,78.70
2022-12-23T12:44:15.826Z,78.70
2022-12-23T12:46:51.447Z,78.70
2022-12-23T12:49:35.305Z,78.70
2022-12-23T12:52:23.986Z,78.70
2022-12-23T12:54:59.196Z,79.60
2022-12-23T12:57:26.333Z,78.70
2022-12-23T13:00:03.575Z,78.80
2022-12-23T13:02:47.943Z,78.70
2022-12-23T13:05:54.355Z,78.70
2022-12-23T13:09:12.484Z,78.60
2022-12-23T13:12:09.290Z,78.60
2022-12-23T13:14:54.258Z,78.50
2022-12-23T13:17:25.682Z,78.40
2022-12-23T13:20:16.937Z,78.40
2022-12-23T13:22:47.694Z,78.40
2022-12-23T13:25:29.677Z,78.20
2022-12-23T13:28:05.559Z,78.00
2022-12-23T13:30:51.182Z,78.00
2022-12-23T13:33:19.115Z,78.40
2022-12-23T13:36:13.941Z,78.50
2022-12-23T13:38:58.840Z,78.70
2022-12-23T13:41:40.738Z,78.80
2022-12-23T13:44:13.649Z,78.80
2022-12-23T13:47:07.380Z,78.80
2022-12-23T13:49:56.782Z,78.90
2022-12-23T13:52:29.722Z,79.00
2022-12-23T13:55:21.880Z,79.10
2022-12-23T13:58:09.415Z,79.10
2022-12-23T14:00:36.635Z,79.20
2022-12-23T14:03:05.965Z,79.40
2022-12-23T14:05:42.000Z,79.40
2022-12-23T14:08:31.699Z,79.50
2022-12-23T14:11:28.092Z,79.50
2022-12-23T14:13:59.396Z,79.50
2022-12-23T14:16:41.359Z,79.50
2022-12-23T14:19:08.453Z,79.40
2022-12-23T14:22:00.881Z,79.30
2022-12-23T14:24:30.597Z,79.30
2022-12-23T14:27:39.512Z,79.40
2022-12-23T14:30:17.396Z,79.40
2022-12-23T14:32:51.267Z,79.20
2022-12-23T14:35:38.564Z,79.20
2022-12-23T14:38:15.462Z,79.30
2022-12-23T14:40:42.334Z,79.20
2022-12-23T14:43:26.132Z,79.20
2022-12-23T14:45:53.977Z,79.00
2022-12-23T14:48:42.351Z,78.90
2022-12-23T14:51:09.188Z,78.90
2022-12-23T14:53:57.039Z,79.00
2022-12-23T14:56:38.686Z,78.90
2022-12-23T14:59:14.517Z,78.70
2022-12-23T15:01:53.916Z,78.70
2022-12-23T15:04:28.476Z,78.90
2022-12-23T15:07:08.128Z,79.10
2022-12-23T15:09:47.164Z,79.00
2022-12-23T15:12:18.730Z,78.90
2022-12-23T15:14:59.089Z,79.00
2022-12-23T15:17:35.064Z,79.10
2022-12-23T15:20:10.550Z,80.00
2022-12-23T15:22:38.581Z,79.30
2022-12-23T15:25:18.381Z,79.30
2022-12-23T15:27:47.264Z,79.20
2022-12-23T15:30:15.296Z,79.10
2022-12-23T15:32:46.340Z,79.00
2022-12-23T15:35:23.059Z,79.00
2022-12-23T15:37:51.091Z,79.10
2022-12-23T15:40:35.640Z,79.40
2022-12-23T15:43:03.953Z,78.80
2022-12-23T15:45:37.835Z,78.70
2022-12-23T15:48:15.507Z,78.80
2022-12-23T15:50:42.516Z,78.80
2022-12-23T15:53:12.915Z,78.80
2022-12-23T15:55:41.281Z,78.70
2022-12-23T15:58:14.914Z,78.70
2022-12-23T16:01:00.423Z,78.70
2022-12-23T16:03:33.321Z,78.50
2022-12-23T16:06:09.469Z,78.60
2022-12-23T16:08:37.566Z,78.70
2022-12-23T16:11:10.650Z,78.70
2022-12-23T16:13:41.605Z,78.70
2022-12-23T16:16:27.203Z,78.70
2022-12-23T16:18:54.128Z,78.40
2022-12-23T16:21:24.420Z,78.50
2022-12-23T16:23:53.016Z,78.80
2022-12-23T16:26:20.957Z,79.00
2022-12-23T16:28:53.002Z,79.00
2022-12-23T16:31:20.907Z,78.80
2022-12-23T16:33:47.807Z,78.70
2022-12-23T16:36:20.384Z,78.70
2022-12-23T16:38:49.315Z,78.90
2022-12-23T16:41:16.184Z,78.70
2022-12-23T16:43:51.569Z,78.60
2022-12-23T16:46:22.309Z,78.50
2022-12-23T16:48:50.552Z,78.50
2022-12-23T16:51:20.293Z,78.70
2022-12-23T16:53:52.663Z,78.70
2022-12-23T16:56:22.584Z,78.70
2022-12-23T16:58:49.675Z,78.80
2022-12-23T17:01:29.608Z,78.80
2022-12-23T17:03:56.727Z,79.00
2022-12-23T17:06:24.140Z,79.10
2022-12-23T17:08:53.085Z,79.10
2022-12-23T17:11:23.320Z,79.10
2022-12-23T17:13:50.452Z,79.40
2022-12-23T17:16:22.397Z,79.50
2022-12-23T17:18:51.009Z,79.70
2022-12-23T17:21:25.720Z,79.90
2022-12-23T17:23:54.531Z,79.90
2022-12-23T17:26:21.431Z,80.10
2022-12-23T17:28:48.305Z,80.30
2022-12-23T17:31:26.579Z,80.50
2022-12-23T17:33:54.534Z,80.50
2022-12-23T17:36:25.314Z,80.30
2022-12-23T17:38:52.237Z,80.20
2022-12-23T17:41:28.255Z,80.20
2022-12-23T17:43:55.658Z,80.10
2022-12-23T17:46:23.037Z,80.10
2022-12-23T17:48:50.046Z,80.00
2022-12-23T17:51:19.869Z,79.90
2022-12-23T17:53:51.689Z,79.70
2022-12-23T17:56:22.466Z,79.70
2022-12-23T17:58:50.811Z,79.60
2022-12-23T18:01:26.933Z,79.60
2022-12-23T18:03:55.316Z,79.40
2022-12-23T18:06:23.499Z,79.20
2022-12-23T18:08:50.503Z,79.20
2022-12-23T18:11:35.983Z,79.10
2022-12-23T18:14:03.858Z,79.00
2022-12-23T18:16:31.137Z,79.00
2022-12-23T18:18:58.085Z,79.00
2022-12-23T18:21:28.088Z,78.80
2022-12-23T18:23:57.782Z,78.80
2022-12-23T18:26:25.288Z,78.80
2022-12-23T18:28:54.241Z,78.70
2022-12-23T18:31:27.278Z,78.70
2022-12-23T18:33:56.308Z,78.60
2022-12-23T18:36:26.189Z,79.50
2022-12-23T18:38:53.777Z,78.60
2022-12-23T18:41:21.651Z,78.60
2022-12-23T18:43:48.956Z,78.60
2022-12-23T18:46:16.287Z,78.50
2022-12-23T18:48:46.260Z,78.40
2022-12-23T18:51:18.680Z,78.30
2022-12-23T18:53:46.968Z,78.20
2022-12-23T18:56:15.379Z,79.10
2022-12-23T18:58:42.566Z,78.20
2022-12-23T19:01:14.308Z,78.10
2022-12-23T19:03:41.543Z,78.10
2022-12-23T19:06:14.002Z,78.10
2022-12-23T19:08:41.588Z,78.10
2022-12-23T19:11:17.504Z,78.10
2022-12-23T19:13:45.420Z,78.00
2022-12-23T19:16:18.294Z,78.00
2022-12-23T19:18:46.564Z,77.90
2022-12-23T19:21:14.011Z,77.90
2022-12-23T19:23:41.559Z,77.90
2022-12-23T19:26:13.605Z,77.90
2022-12-23T19:28:43.727Z,77.90
2022-12-23T19:31:15.616Z,77.90
2022-12-23T19:33:45.259Z,78.00
2022-12-23T19:36:22.834Z,78.20
2022-12-23T19:38:50.244Z,78.30
2022-12-23T19:41:18.084Z,79.20
2022-12-23T19:43:49.610Z,78.30
2022-12-23T19:46:17.611Z,78.30
2022-12-23T19:48:51.564Z,78.30
2022-12-23T19:51:18.790Z,78.40
2022-12-23T19:53:46.175Z,78.30
2022-12-23T19:56:15.601Z,78.20
2022-12-23T19:58:43.853Z,78.30
2022-12-23T20:01:12.509Z,78.20
2022-12-23T20:03:41.990Z,78.20
2022-12-23T20:06:15.035Z,78.10
2022-12-23T20:08:43.692Z,78.10
2022-12-23T20:11:13.908Z,78.10
2022-12-23T20:13:41.242Z,78.10
2022-12-23T20:16:08.925Z,78.10
2022-12-23T20:18:36.578Z,78.20
2022-12-23T20:21:04.378Z,78.30
2022-12-23T20:23:31.837Z,78.30
2022-12-23T20:25:58.812Z,78.30
2022-12-23T20:28:25.923Z,78.30
2022-12-23T20:31:24.157Z,78.30
2022-12-23T20:33:52.599Z,78.20
2022-12-23T20:36:22.642Z,78.20
2022-12-23T20:38:51.772Z,78.10
2022-12-23T20:41:24.017Z,78.10
2022-12-23T20:44:23.481Z,78.00
2022-12-23T20:46:38.551Z,78.00
2022-12-23T20:49:05.523Z,77.90
2022-12-23T20:51:32.463Z,77.70
2022-12-23T20:54:00.963Z,77.60
2022-12-23T20:56:30.195Z,77.40
2022-12-23T20:58:59.067Z,77.30
2022-12-23T21:01:36.540Z,77.10
2022-12-23T21:04:12.797Z,77.10
2022-12-23T21:06:40.342Z,77.10
2022-12-23T21:09:09.586Z,77.10
2022-12-23T21:11:40.120Z,77.00
2022-12-23T21:14:07.799Z,77.10
2022-12-23T21:16:36.689Z,77.10
2022-12-23T21:19:05.203Z,77.10
2022-12-23T21:21:32.266Z,77.30
2022-12-23T21:24:01.455Z,77.20
2022-12-23T21:26:30.267Z,77.20
2022-12-23T21:29:01.494Z,77.10
2022-12-23T21:31:30.494Z,76.90
2022-12-23T21:33:58.224Z,76.90
2022-12-23T21:36:28.282Z,77.80
2022-12-23T21:38:55.224Z,76.90
2022-12-23T21:41:24.703Z,76.90
2022-12-23T21:43:51.879Z,76.90
2022-12-23T21:46:21.408Z,76.80
2022-12-23T21:48:49.296Z,76.70
2022-12-23T21:51:41.028Z,76.70
2022-12-23T21:54:10.064Z,76.60
2022-12-23T21:56:37.714Z,76.70
2022-12-23T21:59:07.409Z,76.70
2022-12-23T22:01:35.280Z,76.70
2022-12-23T22:04:02.963Z,76.80
2022-12-23T22:06:37.094Z,76.90
2022-12-23T22:09:07.584Z,77.00
2022-12-23T22:11:36.350Z,76.90
2022-12-23T22:14:06.124Z,77.00
2022-12-23T22:16:34.145Z,77.10
2022-12-23T22:19:02.169Z,76.90
2022-12-23T22:21:31.931Z,76.90
2022-12-23T22:23:59.283Z,76.90
2022-12-23T22:26:29.010Z,76.60
2022-12-23T22:28:57.426Z,76.50
2022-12-23T22:31:32.764Z,76.30
2022-12-23T22:34:00.081Z,76.20
2022-12-23T22:36:27.182Z,76.00
2022-12-23T22:38:56.822Z,75.90
2022-12-23T22:41:24.546Z,76.00
2022-12-23T22:43:51.514Z,75.90
2022-12-23T22:46:18.838Z,75.90
2022-12-23T22:48:46.535Z,76.60
2022-12-23T22:51:19.303Z,75.60
2022-12-23T22:53:46.806Z,75.60
2022-12-23T22:56:15.604Z,75.50
2022-12-23T22:58:42.679Z,75.30
2022-12-23T23:01:30.484Z,75.30
2022-12-23T23:03:59.344Z,75.30
2022-12-23T23:06:34.747Z,75.40
2022-12-23T23:09:01.794Z,75.30
2022-12-23T23:11:29.578Z,75.40
2022-12-23T23:13:56.724Z,75.30
2022-12-23T23:16:25.027Z,76.30
2022-12-23T23:18:53.000Z,75.30
2022-12-23T23:21:20.479Z,75.30
2022-12-23T23:23:47.936Z,75.30
2022-12-23T23:26:14.986Z,75.30
2022-12-23T23:28:42.437Z,75.20
2022-12-23T23:33:57.888Z,75.20
2022-12-23T23:36:25.293Z,75.20
2022-12-23T23:38:52.240Z,75.20
2022-12-23T23:41:23.167Z,75.10
2022-12-23T23:43:51.589Z,75.10
2022-12-23T23:46:18.766Z,75.10
2022-12-23T23:48:45.749Z,75.00
2022-12-23T23:51:12.985Z,74.90
2022-12-23T23:53:40.526Z,74.80
2022-12-23T23:56:08.555Z,74.80
2022-12-23T23:58:36.770Z,74.70
